sensor_id;sensor_type;location;lat;lon;timestamp;pressure;altitude;pressure_sealevel;temperature;humidity
69127;BME280;56688;50.234;19.292;2023-03-03T00:00:57;98793.75;;;-3.54;75.74
69127;BME280;56688;50.234;19.292;2023-03-03T00:03:25;98792.33;;;-3.53;75.28
69127;BME280;56688;50.234;19.292;2023-03-03T00:05:53;98791.44;;;-3.56;74.90
69127;BME280;56688;50.234;19.292;2023-03-03T00:08:20;98788.48;;;-3.61;74.65
69127;BME280;56688;50.234;19.292;2023-03-03T00:10:48;98787.34;;;-3.69;74.64
69127;BME280;56688;50.234;19.292;2023-03-03T00:13:19;98790.73;;;-3.73;74.88
69127;BME280;56688;50.234;19.292;2023-03-03T00:15:47;98793.48;;;-3.78;74.78
69127;BME280;56688;50.234;19.292;2023-03-03T00:18:23;98789.19;;;-3.85;74.62
69127;BME280;56688;50.234;19.292;2023-03-03T00:26:39;98783.35;;;-3.98;75.34
69127;BME280;56688;50.234;19.292;2023-03-03T00:29:24;98779.73;;;-3.99;75.04
69127;BME280;56688;50.234;19.292;2023-03-03T00:31:52;98777.43;;;-4.01;75.24
69127;BME280;56688;50.234;19.292;2023-03-03T00:34:25;98774.42;;;-4.00;75.42
69127;BME280;56688;50.234;19.292;2023-03-03T00:36:54;98770.37;;;-4.02;75.33
69127;BME280;56688;50.234;19.292;2023-03-03T00:39:37;98770.30;;;-4.04;75.09
69127;BME280;56688;50.234;19.292;2023-03-03T00:42:11;98773.43;;;-4.07;74.98
69127;BME280;56688;50.234;19.292;2023-03-03T00:44:45;98773.20;;;-4.12;75.05
69127;BME280;56688;50.234;19.292;2023-03-03T00:49:50;98772.48;;;-4.23;75.13
69127;BME280;56688;50.234;19.292;2023-03-03T00:52:18;98772.76;;;-4.28;75.01
69127;BME280;56688;50.234;19.292;2023-03-03T00:54:45;98776.33;;;-4.33;75.01
69127;BME280;56688;50.234;19.292;2023-03-03T00:57:12;98780.02;;;-4.33;75.22
69127;BME280;56688;50.234;19.292;2023-03-03T00:59:40;98777.63;;;-4.31;75.41
69127;BME280;56688;50.234;19.292;2023-03-03T01:02:07;98776.23;;;-4.31;75.33
69127;BME280;56688;50.234;19.292;2023-03-03T01:04:35;98775.45;;;-4.30;75.24
69127;BME280;56688;50.234;19.292;2023-03-03T01:07:02;98776.81;;;-4.29;75.17
69127;BME280;56688;50.234;19.292;2023-03-03T01:09:28;98770.10;;;-4.30;75.01
69127;BME280;56688;50.234;19.292;2023-03-03T01:11:55;98774.00;;;-4.31;74.98
69127;BME280;56688;50.234;19.292;2023-03-03T01:14:22;98769.89;;;-4.35;74.59
69127;BME280;56688;50.234;19.292;2023-03-03T01:16:50;98769.56;;;-4.39;74.50
69127;BME280;56688;50.234;19.292;2023-03-03T01:19:17;98763.42;;;-4.44;74.34
69127;BME280;56688;50.234;19.292;2023-03-03T01:21:43;98758.53;;;-4.50;74.42
69127;BME280;56688;50.234;19.292;2023-03-03T01:24:10;98754.81;;;-4.58;74.27
69127;BME280;56688;50.234;19.292;2023-03-03T01:26:37;98754.95;;;-4.63;74.25
69127;BME280;56688;50.234;19.292;2023-03-03T01:29:04;98748.38;;;-4.66;74.35
69127;BME280;56688;50.234;19.292;2023-03-03T01:31:31;98747.73;;;-4.67;74.52
69127;BME280;56688;50.234;19.292;2023-03-03T01:33:58;98745.65;;;-4.64;74.69
69127;BME280;56688;50.234;19.292;2023-03-03T01:36:27;98742.00;;;-4.62;74.79
69127;BME280;56688;50.234;19.292;2023-03-03T01:38:54;98741.58;;;-4.60;74.91
69127;BME280;56688;50.234;19.292;2023-03-03T01:41:21;98738.46;;;-4.57;74.86
69127;BME280;56688;50.234;19.292;2023-03-03T01:43:49;98738.52;;;-4.58;74.78
69127;BME280;56688;50.234;19.292;2023-03-03T01:48:59;98730.76;;;-4.63;74.88
69127;BME280;56688;50.234;19.292;2023-03-03T01:51:31;98728.92;;;-4.67;74.77
69127;BME280;56688;50.234;19.292;2023-03-03T01:54:02;98725.77;;;-4.72;74.85
69127;BME280;56688;50.234;19.292;2023-03-03T01:56:30;98729.78;;;-4.76;75.05
69127;BME280;56688;50.234;19.292;2023-03-03T01:59:03;98725.30;;;-4.77;75.73
69127;BME280;56688;50.234;19.292;2023-03-03T02:01:32;98726.55;;;-4.74;75.95
69127;BME280;56688;50.234;19.292;2023-03-03T02:04:00;98726.04;;;-4.71;76.44
69127;BME280;56688;50.234;19.292;2023-03-03T02:06:31;98728.73;;;-4.66;76.62
69127;BME280;56688;50.234;19.292;2023-03-03T02:09:17;98728.08;;;-4.61;76.65
69127;BME280;56688;50.234;19.292;2023-03-03T02:11:50;98727.11;;;-4.59;76.37
69127;BME280;56688;50.234;19.292;2023-03-03T02:14:18;98730.63;;;-4.63;76.65
69127;BME280;56688;50.234;19.292;2023-03-03T02:16:45;98730.25;;;-4.63;76.99
69127;BME280;56688;50.234;19.292;2023-03-03T02:19:22;98729.73;;;-4.63;77.07
69127;BME280;56688;50.234;19.292;2023-03-03T02:21:50;98729.08;;;-4.64;76.82
69127;BME280;56688;50.234;19.292;2023-03-03T02:24:27;98728.95;;;-4.67;76.56
69127;BME280;56688;50.234;19.292;2023-03-03T02:26:56;98734.52;;;-4.71;76.79
69127;BME280;56688;50.234;19.292;2023-03-03T02:29:23;98735.72;;;-4.70;77.15
69127;BME280;56688;50.234;19.292;2023-03-03T02:31:51;98738.92;;;-4.69;77.38
69127;BME280;56688;50.234;19.292;2023-03-03T02:34:20;98735.94;;;-4.65;77.15
69127;BME280;56688;50.234;19.292;2023-03-03T02:36:48;98742.46;;;-4.60;77.09
69127;BME280;56688;50.234;19.292;2023-03-03T02:39:19;98746.67;;;-4.58;76.49
69127;BME280;56688;50.234;19.292;2023-03-03T02:44:38;98736.30;;;-4.62;75.70
69127;BME280;56688;50.234;19.292;2023-03-03T02:47:05;98732.52;;;-4.66;75.45
69127;BME280;56688;50.234;19.292;2023-03-03T02:49:33;98734.09;;;-4.69;75.37
69127;BME280;56688;50.234;19.292;2023-03-03T02:52:04;98731.68;;;-4.72;75.27
69127;BME280;56688;50.234;19.292;2023-03-03T02:54:32;98736.99;;;-4.77;75.05
69127;BME280;56688;50.234;19.292;2023-03-03T02:57:01;98733.36;;;-4.84;75.18
69127;BME280;56688;50.234;19.292;2023-03-03T02:59:29;98730.39;;;-4.90;75.26
69127;BME280;56688;50.234;19.292;2023-03-03T03:01:57;98729.85;;;-4.95;75.02
69127;BME280;56688;50.234;19.292;2023-03-03T03:04:25;98727.84;;;-5.00;74.93
69127;BME280;56688;50.234;19.292;2023-03-03T03:06:53;98726.73;;;-5.01;74.82
69127;BME280;56688;50.234;19.292;2023-03-03T03:09:22;98728.27;;;-5.01;74.95
69127;BME280;56688;50.234;19.292;2023-03-03T03:11:51;98728.73;;;-5.00;74.68
69127;BME280;56688;50.234;19.292;2023-03-03T03:14:20;98729.29;;;-5.01;74.76
69127;BME280;56688;50.234;19.292;2023-03-03T03:16:47;98735.95;;;-5.02;74.32
69127;BME280;56688;50.234;19.292;2023-03-03T03:19:14;98732.16;;;-5.06;74.31
69127;BME280;56688;50.234;19.292;2023-03-03T03:21:42;98730.00;;;-5.08;74.19
69127;BME280;56688;50.234;19.292;2023-03-03T03:24:09;98724.90;;;-5.12;73.71
69127;BME280;56688;50.234;19.292;2023-03-03T03:26:38;98723.31;;;-5.18;73.60
69127;BME280;56688;50.234;19.292;2023-03-03T03:29:05;98720.98;;;-5.23;73.79
69127;BME280;56688;50.234;19.292;2023-03-03T03:31:33;98720.52;;;-5.27;74.09
69127;BME280;56688;50.234;19.292;2023-03-03T03:34:01;98716.48;;;-5.33;74.10
69127;BME280;56688;50.234;19.292;2023-03-03T03:36:28;98722.77;;;-5.37;74.15
69127;BME280;56688;50.234;19.292;2023-03-03T03:38:55;98722.38;;;-5.39;74.27
69127;BME280;56688;50.234;19.292;2023-03-03T03:41:21;98720.92;;;-5.38;74.45
69127;BME280;56688;50.234;19.292;2023-03-03T03:43:48;98721.09;;;-5.35;74.44
69127;BME280;56688;50.234;19.292;2023-03-03T03:46:16;98715.44;;;-5.33;73.99
69127;BME280;56688;50.234;19.292;2023-03-03T03:48:43;98711.23;;;-5.35;73.68
69127;BME280;56688;50.234;19.292;2023-03-03T03:51:11;98711.67;;;-5.37;73.83
69127;BME280;56688;50.234;19.292;2023-03-03T03:53:39;98712.36;;;-5.37;73.96
69127;BME280;56688;50.234;19.292;2023-03-03T03:56:06;98712.36;;;-5.37;73.82
69127;BME280;56688;50.234;19.292;2023-03-03T03:58:33;98708.88;;;-5.40;73.58
69127;BME280;56688;50.234;19.292;2023-03-03T04:01:05;98707.35;;;-5.44;73.51
69127;BME280;56688;50.234;19.292;2023-03-03T04:03:35;98707.23;;;-5.48;73.54
69127;BME280;56688;50.234;19.292;2023-03-03T04:06:05;98713.70;;;-5.52;73.67
69127;BME280;56688;50.234;19.292;2023-03-03T04:08:32;98718.29;;;-5.56;73.79
69127;BME280;56688;50.234;19.292;2023-03-03T04:11:01;98727.01;;;-5.61;74.05
69127;BME280;56688;50.234;19.292;2023-03-03T04:13:28;98729.89;;;-5.66;73.97
69127;BME280;56688;50.234;19.292;2023-03-03T04:15:58;98730.64;;;-5.70;73.94
69127;BME280;56688;50.234;19.292;2023-03-03T04:18:24;98732.09;;;-5.75;74.01
69127;BME280;56688;50.234;19.292;2023-03-03T04:20:52;98738.90;;;-5.76;74.45
69127;BME280;56688;50.234;19.292;2023-03-03T04:23:20;98745.27;;;-5.71;75.05
69127;BME280;56688;50.234;19.292;2023-03-03T04:25:48;98741.85;;;-5.66;75.37
69127;BME280;56688;50.234;19.292;2023-03-03T04:28:16;98735.71;;;-5.62;75.33
69127;BME280;56688;50.234;19.292;2023-03-03T04:30:43;98732.64;;;-5.59;75.26
69127;BME280;56688;50.234;19.292;2023-03-03T04:33:12;98730.56;;;-5.56;74.93
69127;BME280;56688;50.234;19.292;2023-03-03T04:35:39;98727.71;;;-5.57;74.57
69127;BME280;56688;50.234;19.292;2023-03-03T04:38:06;98724.52;;;-5.60;74.37
69127;BME280;56688;50.234;19.292;2023-03-03T04:40:33;98729.20;;;-5.63;74.63
69127;BME280;56688;50.234;19.292;2023-03-03T04:43:00;98722.70;;;-5.65;75.06
69127;BME280;56688;50.234;19.292;2023-03-03T04:45:27;98722.36;;;-5.68;75.03
69127;BME280;56688;50.234;19.292;2023-03-03T04:47:54;98728.76;;;-5.71;74.93
69127;BME280;56688;50.234;19.292;2023-03-03T04:50:21;98731.27;;;-5.72;75.00
69127;BME280;56688;50.234;19.292;2023-03-03T04:52:48;98735.04;;;-5.71;75.26
69127;BME280;56688;50.234;19.292;2023-03-03T04:55:15;98726.31;;;-5.67;75.46
69127;BME280;56688;50.234;19.292;2023-03-03T04:57:44;98727.45;;;-5.62;75.49
69127;BME280;56688;50.234;19.292;2023-03-03T05:00:12;98719.92;;;-5.62;75.18
69127;BME280;56688;50.234;19.292;2023-03-03T05:02:40;98721.35;;;-5.58;74.83
69127;BME280;56688;50.234;19.292;2023-03-03T05:05:07;98727.64;;;-5.59;74.88
69127;BME280;56688;50.234;19.292;2023-03-03T05:07:36;98734.55;;;-5.72;75.37
69127;BME280;56688;50.234;19.292;2023-03-03T05:10:03;98732.35;;;-5.83;75.76
69127;BME280;56688;50.234;19.292;2023-03-03T05:12:30;98727.62;;;-5.89;75.54
69127;BME280;56688;50.234;19.292;2023-03-03T05:14:57;98730.83;;;-6.03;75.56
69127;BME280;56688;50.234;19.292;2023-03-03T05:17:24;98735.79;;;-6.19;76.49
69127;BME280;56688;50.234;19.292;2023-03-03T05:19:50;98739.64;;;-6.23;77.21
69127;BME280;56688;50.234;19.292;2023-03-03T05:22:17;98744.61;;;-6.22;77.74
69127;BME280;56688;50.234;19.292;2023-03-03T05:24:44;98748.82;;;-6.22;77.92
69127;BME280;56688;50.234;19.292;2023-03-03T05:27:15;98762.95;;;-6.18;78.06
69127;BME280;56688;50.234;19.292;2023-03-03T05:29:42;98768.47;;;-6.14;78.49
69127;BME280;56688;50.234;19.292;2023-03-03T05:32:09;98769.17;;;-6.07;78.51
69127;BME280;56688;50.234;19.292;2023-03-03T05:34:36;98766.00;;;-6.06;78.10
69127;BME280;56688;50.234;19.292;2023-03-03T05:37:02;98756.48;;;-6.06;78.08
69127;BME280;56688;50.234;19.292;2023-03-03T05:39:33;98765.89;;;-6.03;78.04
69127;BME280;56688;50.234;19.292;2023-03-03T05:42:01;98775.56;;;-6.03;78.32
69127;BME280;56688;50.234;19.292;2023-03-03T05:44:28;98779.83;;;-5.98;78.63
69127;BME280;56688;50.234;19.292;2023-03-03T05:46:54;98782.02;;;-5.87;79.05
69127;BME280;56688;50.234;19.292;2023-03-03T05:49:24;98775.84;;;-5.72;79.64
69127;BME280;56688;50.234;19.292;2023-03-03T05:51:51;98773.27;;;-5.56;79.87
69127;BME280;56688;50.234;19.292;2023-03-03T05:54:20;98771.92;;;-5.40;79.98
69127;BME280;56688;50.234;19.292;2023-03-03T05:56:47;98773.80;;;-5.27;80.14
69127;BME280;56688;50.234;19.292;2023-03-03T05:59:14;98774.06;;;-5.19;80.01
69127;BME280;56688;50.234;19.292;2023-03-03T06:01:40;98777.26;;;-5.08;80.41
69127;BME280;56688;50.234;19.292;2023-03-03T06:04:07;98781.94;;;-4.95;80.55
69127;BME280;56688;50.234;19.292;2023-03-03T06:06:35;98783.18;;;-4.83;80.59
69127;BME280;56688;50.234;19.292;2023-03-03T06:09:02;98789.30;;;-4.71;80.78
69127;BME280;56688;50.234;19.292;2023-03-03T06:11:29;98792.70;;;-4.60;80.80
69127;BME280;56688;50.234;19.292;2023-03-03T06:13:56;98791.45;;;-4.48;80.94
69127;BME280;56688;50.234;19.292;2023-03-03T06:16:23;98794.38;;;-4.35;80.71
69127;BME280;56688;50.234;19.292;2023-03-03T06:18:50;98798.63;;;-4.21;81.05
69127;BME280;56688;50.234;19.292;2023-03-03T06:21:16;98796.66;;;-4.02;81.16
69127;BME280;56688;50.234;19.292;2023-03-03T06:23:43;98801.42;;;-3.80;81.29
69127;BME280;56688;50.234;19.292;2023-03-03T06:26:10;98799.29;;;-3.59;81.27
69127;BME280;56688;50.234;19.292;2023-03-03T06:28:37;98791.56;;;-3.38;81.25
69127;BME280;56688;50.234;19.292;2023-03-03T06:31:04;98784.60;;;-3.21;80.71
69127;BME280;56688;50.234;19.292;2023-03-03T06:33:30;98782.91;;;-3.05;80.73
69127;BME280;56688;50.234;19.292;2023-03-03T06:35:57;98787.52;;;-2.90;80.58
69127;BME280;56688;50.234;19.292;2023-03-03T06:38:25;98789.91;;;-2.78;80.67
69127;BME280;56688;50.234;19.292;2023-03-03T06:40:52;98782.95;;;-2.67;80.47
69127;BME280;56688;50.234;19.292;2023-03-03T06:43:19;98773.06;;;-2.60;80.53
69127;BME280;56688;50.234;19.292;2023-03-03T06:45:46;98782.20;;;-2.48;80.66
69127;BME280;56688;50.234;19.292;2023-03-03T06:48:13;98790.09;;;-2.35;80.68
69127;BME280;56688;50.234;19.292;2023-03-03T06:50:40;98791.54;;;-2.22;80.61
69127;BME280;56688;50.234;19.292;2023-03-03T06:55:38;98795.35;;;-2.09;80.11
69127;BME280;56688;50.234;19.292;2023-03-03T06:58:15;98793.97;;;-1.99;80.13
69127;BME280;56688;50.234;19.292;2023-03-03T07:00:44;98802.79;;;-1.92;79.56
69127;BME280;56688;50.234;19.292;2023-03-03T07:03:14;98801.05;;;-1.90;79.76
69127;BME280;56688;50.234;19.292;2023-03-03T07:05:41;98795.91;;;-1.81;79.86
69127;BME280;56688;50.234;19.292;2023-03-03T07:08:14;98796.95;;;-1.76;79.95
69127;BME280;56688;50.234;19.292;2023-03-03T07:10:43;98789.52;;;-1.64;80.10
69127;BME280;56688;50.234;19.292;2023-03-03T07:15:41;98788.56;;;-1.45;79.57
69127;BME280;56688;50.234;19.292;2023-03-03T07:23:40;98777.54;;;-1.17;79.07
69127;BME280;56688;50.234;19.292;2023-03-03T07:26:13;98773.13;;;-1.07;78.83
69127;BME280;56688;50.234;19.292;2023-03-03T07:28:43;98783.91;;;-0.99;78.81
69127;BME280;56688;50.234;19.292;2023-03-03T07:31:28;98784.80;;;-0.87;78.49
69127;BME280;56688;50.234;19.292;2023-03-03T07:33:56;98792.63;;;-0.78;78.39
69127;BME280;56688;50.234;19.292;2023-03-03T07:36:27;98801.98;;;-0.72;78.05
69127;BME280;56688;50.234;19.292;2023-03-03T07:38:58;98813.90;;;-0.68;77.85
69127;BME280;56688;50.234;19.292;2023-03-03T07:41:27;98806.38;;;-0.61;77.81
69127;BME280;56688;50.234;19.292;2023-03-03T07:44:02;98805.48;;;-0.55;77.39
69127;BME280;56688;50.234;19.292;2023-03-03T07:46:35;98800.52;;;-0.47;77.39
69127;BME280;56688;50.234;19.292;2023-03-03T07:49:19;98797.98;;;-0.37;77.74
69127;BME280;56688;50.234;19.292;2023-03-03T07:51:46;98787.30;;;-0.22;77.40
69127;BME280;56688;50.234;19.292;2023-03-03T07:54:25;98783.71;;;-0.14;77.09
69127;BME280;56688;50.234;19.292;2023-03-03T07:57:00;98793.05;;;-0.08;77.23
69127;BME280;56688;50.234;19.292;2023-03-03T07:59:28;98796.97;;;0.03;76.55
69127;BME280;56688;50.234;19.292;2023-03-03T08:01:56;98799.64;;;0.14;76.95
69127;BME280;56688;50.234;19.292;2023-03-03T08:04:43;98808.39;;;0.28;76.73
69127;BME280;56688;50.234;19.292;2023-03-03T08:07:18;98818.07;;;0.41;76.53
69127;BME280;56688;50.234;19.292;2023-03-03T08:10:01;98817.51;;;0.51;76.14
69127;BME280;56688;50.234;19.292;2023-03-03T08:12:39;98811.48;;;0.57;75.53
69127;BME280;56688;50.234;19.292;2023-03-03T08:15:16;98797.52;;;0.60;75.06
69127;BME280;56688;50.234;19.292;2023-03-03T08:17:44;98801.15;;;0.59;74.65
69127;BME280;56688;50.234;19.292;2023-03-03T08:22:55;98808.79;;;0.48;74.40
69127;BME280;56688;50.234;19.292;2023-03-03T08:25:22;98795.08;;;0.49;74.14
69127;BME280;56688;50.234;19.292;2023-03-03T08:27:49;98802.22;;;0.54;74.56
69127;BME280;56688;50.234;19.292;2023-03-03T08:30:16;98807.88;;;0.65;74.69
69127;BME280;56688;50.234;19.292;2023-03-03T08:32:42;98815.00;;;0.74;73.98
69127;BME280;56688;50.234;19.292;2023-03-03T08:35:09;98807.89;;;0.80;73.82
69127;BME280;56688;50.234;19.292;2023-03-03T08:37:36;98806.14;;;0.87;73.55
69127;BME280;56688;50.234;19.292;2023-03-03T08:40:03;98809.73;;;0.95;73.32
69127;BME280;56688;50.234;19.292;2023-03-03T08:42:30;98817.86;;;1.05;73.30
69127;BME280;56688;50.234;19.292;2023-03-03T08:44:57;98823.23;;;1.13;73.02
69127;BME280;56688;50.234;19.292;2023-03-03T08:47:24;98826.81;;;1.20;73.14
69127;BME280;56688;50.234;19.292;2023-03-03T08:49:51;98835.95;;;1.25;72.87
69127;BME280;56688;50.234;19.292;2023-03-03T08:52:20;98836.40;;;1.30;72.70
69127;BME280;56688;50.234;19.292;2023-03-03T08:54:46;98840.17;;;1.33;71.86
69127;BME280;56688;50.234;19.292;2023-03-03T08:57:13;98839.83;;;1.35;71.56
69127;BME280;56688;50.234;19.292;2023-03-03T08:59:40;98835.62;;;1.35;71.34
69127;BME280;56688;50.234;19.292;2023-03-03T09:02:07;98824.72;;;1.33;71.34
69127;BME280;56688;50.234;19.292;2023-03-03T09:04:34;98821.55;;;1.29;71.34
69127;BME280;56688;50.234;19.292;2023-03-03T09:07:01;98820.65;;;1.30;71.39
69127;BME280;56688;50.234;19.292;2023-03-03T09:09:28;98821.91;;;1.33;71.38
69127;BME280;56688;50.234;19.292;2023-03-03T09:11:58;98813.56;;;1.28;71.28
69127;BME280;56688;50.234;19.292;2023-03-03T09:14:27;98812.16;;;1.21;71.48
69127;BME280;56688;50.234;19.292;2023-03-03T09:16:55;98814.06;;;1.20;71.74
69127;BME280;56688;50.234;19.292;2023-03-03T09:19:25;98813.92;;;1.17;71.94
69127;BME280;56688;50.234;19.292;2023-03-03T09:21:54;98818.20;;;1.21;72.04
69127;BME280;56688;50.234;19.292;2023-03-03T09:24:26;98814.34;;;1.27;72.76
69127;BME280;56688;50.234;19.292;2023-03-03T09:26:54;98817.16;;;1.32;72.11
69127;BME280;56688;50.234;19.292;2023-03-03T09:29:30;98814.89;;;1.36;72.33
69127;BME280;56688;50.234;19.292;2023-03-03T09:31:59;98818.70;;;1.38;71.97
69127;BME280;56688;50.234;19.292;2023-03-03T09:37:23;98819.56;;;1.45;72.21
69127;BME280;56688;50.234;19.292;2023-03-03T09:39:51;98822.88;;;1.48;71.82
69127;BME280;56688;50.234;19.292;2023-03-03T09:47:57;98819.48;;;1.64;71.97
69127;BME280;56688;50.234;19.292;2023-03-03T09:53:22;98821.00;;;1.66;71.56
69127;BME280;56688;50.234;19.292;2023-03-03T10:04:28;98844.10;;;1.61;72.18
69127;BME280;56688;50.234;19.292;2023-03-03T10:15:31;98833.23;;;1.67;71.82
69127;BME280;56688;50.234;19.292;2023-03-03T10:18:12;98836.13;;;1.71;72.06
69127;BME280;56688;50.234;19.292;2023-03-03T10:20:44;98837.59;;;1.74;72.26
69127;BME280;56688;50.234;19.292;2023-03-03T10:23:23;98843.07;;;1.76;72.19
69127;BME280;56688;50.234;19.292;2023-03-03T10:26:07;98849.77;;;1.80;71.72
69127;BME280;56688;50.234;19.292;2023-03-03T10:36:50;98850.75;;;1.85;70.85
69127;BME280;56688;50.234;19.292;2023-03-03T10:52:32;98853.65;;;2.01;71.14
69127;BME280;56688;50.234;19.292;2023-03-03T10:55:20;98861.90;;;2.06;70.69
69127;BME280;56688;50.234;19.292;2023-03-03T11:00:54;98858.52;;;2.15;70.29
69127;BME280;56688;50.234;19.292;2023-03-03T11:05:57;98858.70;;;2.17;69.51
69127;BME280;56688;50.234;19.292;2023-03-03T11:08:38;98858.21;;;2.08;69.44
69127;BME280;56688;50.234;19.292;2023-03-03T11:19:06;98842.29;;;1.75;70.12
69127;BME280;56688;50.234;19.292;2023-03-03T11:21:46;98840.54;;;1.75;69.83
69127;BME280;56688;50.234;19.292;2023-03-03T11:24:38;98839.63;;;1.77;70.07
69127;BME280;56688;50.234;19.292;2023-03-03T11:29:50;98842.64;;;1.88;69.54
69127;BME280;56688;50.234;19.292;2023-03-03T11:35:23;98848.63;;;1.85;70.23
69127;BME280;56688;50.234;19.292;2023-03-03T11:40:25;98835.44;;;1.86;69.43
69127;BME280;56688;50.234;19.292;2023-03-03T11:45:30;98836.41;;;1.80;69.87
69127;BME280;56688;50.234;19.292;2023-03-03T11:48:13;98832.48;;;1.79;69.91
69127;BME280;56688;50.234;19.292;2023-03-03T11:59:47;98839.80;;;2.11;68.95
69127;BME280;56688;50.234;19.292;2023-03-03T12:02:04;98836.89;;;2.21;68.64
69127;BME280;56688;50.234;19.292;2023-03-03T12:04:46;98832.19;;;2.27;68.62
69127;BME280;56688;50.234;19.292;2023-03-03T12:09:54;98835.71;;;2.29;68.23
69127;BME280;56688;50.234;19.292;2023-03-03T12:12:29;98833.27;;;2.29;68.01
69127;BME280;56688;50.234;19.292;2023-03-03T12:20:48;98826.31;;;2.48;67.94
69127;BME280;56688;50.234;19.292;2023-03-03T12:26:07;98819.48;;;2.48;67.00
69127;BME280;56688;50.234;19.292;2023-03-03T12:28:43;98819.96;;;2.41;67.04
69127;BME280;56688;50.234;19.292;2023-03-03T12:34:02;98816.82;;;2.28;67.42
69127;BME280;56688;50.234;19.292;2023-03-03T12:39:15;98817.31;;;2.26;68.06
69127;BME280;56688;50.234;19.292;2023-03-03T12:47:46;98805.22;;;2.05;68.22
69127;BME280;56688;50.234;19.292;2023-03-03T12:50:35;98801.63;;;1.93;68.40
69127;BME280;56688;50.234;19.292;2023-03-03T12:55:59;98803.45;;;1.86;68.77
69127;BME280;56688;50.234;19.292;2023-03-03T13:01:33;98802.09;;;1.91;68.38
69127;BME280;56688;50.234;19.292;2023-03-03T13:06:58;98795.48;;;1.97;68.01
69127;BME280;56688;50.234;19.292;2023-03-03T13:12:37;98789.36;;;1.99;67.73
69127;BME280;56688;50.234;19.292;2023-03-03T13:15:14;98784.25;;;2.10;67.87
69127;BME280;56688;50.234;19.292;2023-03-03T13:25:56;98792.73;;;2.65;65.28
69127;BME280;56688;50.234;19.292;2023-03-03T13:28:32;98796.54;;;2.72;65.21
69127;BME280;56688;50.234;19.292;2023-03-03T13:31:10;98799.95;;;2.80;65.19
69127;BME280;56688;50.234;19.292;2023-03-03T13:33:40;98797.72;;;2.81;64.97
69127;BME280;56688;50.234;19.292;2023-03-03T13:36:15;98792.02;;;2.80;64.73
69127;BME280;56688;50.234;19.292;2023-03-03T13:38:49;98791.55;;;2.81;64.77
69127;BME280;56688;50.234;19.292;2023-03-03T13:41:23;98788.96;;;2.85;64.48
69127;BME280;56688;50.234;19.292;2023-03-03T13:46:34;98790.90;;;2.84;63.97
69127;BME280;56688;50.234;19.292;2023-03-03T13:51:52;98784.41;;;2.60;64.04
69127;BME280;56688;50.234;19.292;2023-03-03T14:00:03;98790.98;;;2.32;66.37
69127;BME280;56688;50.234;19.292;2023-03-03T14:02:57;98791.84;;;2.24;66.35
69127;BME280;56688;50.234;19.292;2023-03-03T14:10:46;98786.03;;;2.03;66.46
69127;BME280;56688;50.234;19.292;2023-03-03T14:13:20;98785.23;;;1.93;66.90
69127;BME280;56688;50.234;19.292;2023-03-03T14:21:30;98784.39;;;1.80;67.73
69127;BME280;56688;50.234;19.292;2023-03-03T14:24:14;98781.49;;;1.86;67.67
69127;BME280;56688;50.234;19.292;2023-03-03T14:26:55;98778.25;;;1.89;67.40
69127;BME280;56688;50.234;19.292;2023-03-03T14:31:54;98772.75;;;1.89;67.25
69127;BME280;56688;50.234;19.292;2023-03-03T14:36:50;98778.45;;;1.88;67.19
69127;BME280;56688;50.234;19.292;2023-03-03T14:39:38;98777.35;;;1.89;67.02
69127;BME280;56688;50.234;19.292;2023-03-03T14:42:13;98779.44;;;1.81;67.38
69127;BME280;56688;50.234;19.292;2023-03-03T14:44:56;98780.27;;;1.73;67.16
69127;BME280;56688;50.234;19.292;2023-03-03T14:47:26;98777.58;;;1.72;67.55
69127;BME280;56688;50.234;19.292;2023-03-03T14:49:56;98776.94;;;1.77;67.74
69127;BME280;56688;50.234;19.292;2023-03-03T14:52:29;98776.52;;;1.76;67.22
69127;BME280;56688;50.234;19.292;2023-03-03T14:54:59;98778.65;;;1.71;67.13
69127;BME280;56688;50.234;19.292;2023-03-03T15:05:30;98772.02;;;1.49;67.40
69127;BME280;56688;50.234;19.292;2023-03-03T15:13:29;98774.03;;;1.42;67.88
69127;BME280;56688;50.234;19.292;2023-03-03T15:18:27;98763.59;;;1.47;68.13
69127;BME280;56688;50.234;19.292;2023-03-03T15:26:33;98757.85;;;1.42;67.65
69127;BME280;56688;50.234;19.292;2023-03-03T15:29:10;98755.52;;;1.36;67.68
69127;BME280;56688;50.234;19.292;2023-03-03T15:34:30;98766.15;;;1.26;68.28
69127;BME280;56688;50.234;19.292;2023-03-03T15:42:22;98761.36;;;1.20;68.52
69127;BME280;56688;50.234;19.292;2023-03-03T15:50:33;98765.67;;;1.21;68.71
69127;BME280;56688;50.234;19.292;2023-03-03T16:01:40;98761.79;;;1.24;68.54
69127;BME280;56688;50.234;19.292;2023-03-03T16:04:13;98764.73;;;1.22;68.45
69127;BME280;56688;50.234;19.292;2023-03-03T16:15:04;98772.45;;;1.16;69.40
69127;BME280;56688;50.234;19.292;2023-03-03T16:36:59;98781.58;;;1.11;69.14
69127;BME280;56688;50.234;19.292;2023-03-03T16:42:29;98786.14;;;0.98;69.90
69127;BME280;56688;50.234;19.292;2023-03-03T17:01:20;98789.41;;;1.05;71.06
69127;BME280;56688;50.234;19.292;2023-03-03T17:06:52;98791.55;;;0.94;70.91
69127;BME280;56688;50.234;19.292;2023-03-03T17:17:10;98798.71;;;0.65;71.58
69127;BME280;56688;50.234;19.292;2023-03-03T17:25:22;98796.30;;;0.69;72.10
69127;BME280;56688;50.234;19.292;2023-03-03T17:27:56;98796.66;;;0.73;72.12
69127;BME280;56688;50.234;19.292;2023-03-03T17:30:34;98800.25;;;0.77;71.59
69127;BME280;56688;50.234;19.292;2023-03-03T17:36:02;98802.09;;;0.76;71.72
69127;BME280;56688;50.234;19.292;2023-03-03T17:49:31;98800.38;;;0.57;72.45
69127;BME280;56688;50.234;19.292;2023-03-03T17:52:07;98794.96;;;0.57;72.79
69127;BME280;56688;50.234;19.292;2023-03-03T18:03:17;98801.10;;;0.54;72.98
69127;BME280;56688;50.234;19.292;2023-03-03T18:08:45;98799.88;;;0.50;73.63
69127;BME280;56688;50.234;19.292;2023-03-03T18:14:24;98805.14;;;0.54;73.58
69127;BME280;56688;50.234;19.292;2023-03-03T18:22:31;98796.89;;;0.50;73.87
69127;BME280;56688;50.234;19.292;2023-03-03T18:25:00;98797.75;;;0.48;74.04
69127;BME280;56688;50.234;19.292;2023-03-03T18:27:31;98796.52;;;0.46;74.22
69127;BME280;56688;50.234;19.292;2023-03-03T18:32:41;98804.72;;;0.46;74.53
69127;BME280;56688;50.234;19.292;2023-03-03T18:38:23;98805.82;;;0.55;74.61